Time;durP1;ratioP1;P1;durP2;ratioP2;P2;SDS_P1;SDS_P2;PMS_P1;PMS_P2;Temp;Humidity;BMP_temperature;BMP_pressure;BME280_temperature;BME280_humidity;BME280_pressure;Samples;Min_cycle;Max_cycle;Signal;HPM_P1;HPM_P2
2022/02/08 00:01:15;;;;;;;18.10;3.03;;;6.50;99.90;;;;;;5055481;28;20174;-80
2022/02/08 00:03:41;;;;;;;7.00;2.28;;;6.50;99.90;;;;;;5053877;28;20251;-80
2022/02/08 00:08:32;;;;;;;7.93;2.87;;;6.50;99.90;;;;;;5055028;28;20184;-80
2022/02/08 00:10:57;;;;;;;15.10;3.57;;;6.40;99.90;;;;;;5053339;28;20241;-80
2022/02/08 00:13:23;;;;;;;11.13;2.83;;;6.40;99.90;;;;;;5053729;28;20193;-80
2022/02/08 00:15:49;;;;;;;11.50;3.00;;;6.50;99.90;;;;;;5055076;28;20182;-79
2022/02/08 00:18:14;;;;;;;12.00;3.63;;;6.50;99.90;;;;;;5055243;28;20304;-79
2022/02/08 00:20:40;;;;;;;9.63;1.90;;;6.40;99.90;;;;;;5052773;28;20338;-81
2022/02/08 00:23:05;;;;;;;5.50;2.17;;;6.50;99.90;;;;;;5053562;28;20583;-79
2022/02/08 00:25:31;;;;;;;13.40;2.87;;;6.30;99.90;;;;;;5054927;28;20189;-80
2022/02/08 00:27:57;;;;;;;6.20;1.50;;;6.30;99.90;;;;;;5054704;28;20602;-79
2022/02/08 00:30:22;;;;;;;7.93;2.00;;;6.20;99.90;;;;;;5053138;28;20217;-79
2022/02/08 00:32:48;;;;;;;7.83;2.07;;;6.10;99.90;;;;;;5054668;28;20179;-79
2022/02/08 00:35:13;;;;;;;10.20;2.30;;;6.20;99.90;;;;;;5053445;28;20183;-80
2022/02/08 00:37:39;;;;;;;9.97;2.50;;;6.10;99.90;;;;;;5054709;28;20696;-79
2022/02/08 00:40:05;;;;;;;7.37;2.57;;;6.10;99.90;;;;;;5054215;28;20233;-79
2022/02/08 00:42:33;;;;;;;9.55;1.90;;;6.10;99.90;;;;;;5054696;28;20174;-81
2022/02/08 00:47:47;;;;;;;9.45;2.33;;;6.10;99.90;;;;;;5054389;28;20618;-80
2022/02/08 00:50:13;;;;;;;6.93;1.67;;;6.00;99.90;;;;;;5053216;28;20202;-80
2022/02/08 00:52:40;;;;;;;6.77;2.30;;;6.10;99.90;;;;;;5054319;28;20181;-80
2022/02/08 00:55:09;;;;;;;7.40;1.80;;;6.10;99.90;;;;;;5054140;28;20205;-80
2022/02/08 00:57:35;;;;;;;7.88;1.75;;;6.10;99.90;;;;;;5052806;28;20214;-80
2022/02/08 01:00:02;;;;;;;9.73;1.60;;;6.10;99.90;;;;;;5052577;28;20280;-80
2022/02/08 01:02:28;;;;;;;4.95;1.60;;;6.00;99.90;;;;;;5053872;28;20274;-80
2022/02/08 01:04:57;;;;;;;10.77;2.83;;;6.00;99.90;;;;;;5054049;28;20261;-79
2022/02/08 01:07:23;;;;;;;9.32;2.40;;;6.10;99.90;;;;;;5053772;28;20325;-80
2022/02/08 01:09:55;;;;;;;4.15;2.00;;;6.00;99.90;;;;;;5053722;28;20202;-80
2022/02/08 01:12:23;;;;;;;3.70;1.40;;;6.00;99.90;;;;;;5053131;28;20564;-80
2022/02/08 01:14:52;;;;;;;5.88;1.55;;;5.90;99.90;;;;;;5053364;28;20646;-80
2022/02/08 01:17:20;;;;;;;4.13;1.80;;;6.00;99.90;;;;;;5036342;28;20221;-81
2022/02/08 01:19:52;;;;;;;7.22;2.92;;;6.00;99.90;;;;;;5053639;28;20601;-80
2022/02/08 01:22:18;;;;;;;5.57;1.63;;;6.10;99.90;;;;;;5052973;28;20243;-80
2022/02/08 01:24:47;;;;;;;6.40;1.93;;;6.00;99.90;;;;;;5052438;28;20182;-80
2022/02/08 01:27:15;;;;;;;4.53;1.92;;;5.90;99.90;;;;;;5053496;28;20543;-80
2022/02/08 01:30:02;;;;;;;4.43;1.98;;;5.90;99.90;;;;;;5051907;28;20197;-80
2022/02/08 01:40:10;;;;;;;9.07;1.77;;;6.00;99.90;;;;;;5053325;28;20327;-80
2022/02/08 01:42:59;;;;;;;7.22;2.30;;;6.00;99.90;;;;;;5053556;28;20193;-80
2022/02/08 01:45:42;;;;;;;4.82;1.58;;;6.10;99.90;;;;;;5053359;28;20174;-80
2022/02/08 01:48:27;;;;;;;5.50;1.75;;;6.00;99.90;;;;;;5053349;28;20538;-80
2022/02/08 01:50:55;;;;;;;8.20;2.15;;;6.00;99.90;;;;;;5052946;28;20195;-80
2022/02/08 01:53:21;;;;;;;7.55;1.55;;;6.00;99.90;;;;;;5053080;28;20588;-80
2022/02/08 01:55:49;;;;;;;4.82;2.10;;;6.10;99.90;;;;;;5053117;28;20178;-80
2022/02/08 01:58:14;;;;;;;5.35;1.83;;;6.10;99.90;;;;;;5051766;28;20188;-80
2022/02/08 02:00:40;;;;;;;5.30;3.13;;;6.10;99.90;;;;;;5051644;28;20666;-80
2022/02/08 02:03:06;;;;;;;4.23;1.50;;;6.20;99.90;;;;;;5018901;28;20265;-80
2022/02/08 02:05:31;;;;;;;3.93;1.33;;;6.30;99.90;;;;;;5052946;28;20434;-80
2022/02/08 02:07:58;;;;;;;6.67;2.87;;;6.30;99.90;;;;;;5051717;28;20205;-81
2022/02/08 02:10:25;;;;;;;5.68;1.83;;;6.30;99.90;;;;;;5052543;28;20218;-80
2022/02/08 02:12:52;;;;;;;2.67;1.45;;;6.30;99.90;;;;;;5051444;28;20214;-80
2022/02/08 02:15:18;;;;;;;10.18;1.50;;;6.40;99.90;;;;;;5053067;28;20171;-80
2022/02/08 02:17:43;;;;;;;4.60;1.80;;;6.40;99.90;;;;;;5052925;28;20235;-80
2022/02/08 02:20:09;;;;;;;4.40;1.33;;;6.50;99.90;;;;;;5052484;28;20209;-81
2022/02/08 02:22:35;;;;;;;4.57;1.30;;;6.50;99.90;;;;;;5051527;28;20186;-80
2022/02/08 02:25:01;;;;;;;3.40;1.53;;;6.50;99.90;;;;;;5051890;28;20537;-80
2022/02/08 02:27:26;;;;;;;2.90;1.33;;;6.50;99.90;;;;;;5051910;28;20279;-80
2022/02/08 02:29:52;;;;;;;5.23;2.23;;;6.50;99.90;;;;;;5052390;28;20201;-81
2022/02/08 02:32:17;;;;;;;5.60;2.13;;;6.60;99.90;;;;;;5051858;28;20182;-80
2022/02/08 02:34:50;;;;;;;2.63;1.63;;;6.60;99.90;;;;;;5051719;28;20327;-80
2022/02/08 02:37:17;;;;;;;4.18;1.20;;;6.60;99.90;;;;;;5052924;28;20185;-80
2022/02/08 02:39:43;;;;;;;3.72;1.77;;;6.60;99.90;;;;;;5052364;28;20205;-80
2022/02/08 02:42:13;;;;;;;5.20;1.77;;;6.60;99.90;;;;;;5052614;28;20174;-79
2022/02/08 02:44:39;;;;;;;3.75;2.00;;;6.60;99.90;;;;;;5055398;28;20258;-80
2022/02/08 02:47:05;;;;;;;3.15;1.80;;;6.60;99.90;;;;;;5056635;28;20582;-81
2022/02/08 02:49:30;;;;;;;5.47;1.73;;;6.70;99.90;;;;;;5056380;28;20197;-80
2022/02/08 02:51:56;;;;;;;8.47;1.57;;;6.70;99.90;;;;;;5055306;28;20180;-81
2022/02/08 02:54:22;;;;;;;2.88;1.63;;;6.70;99.90;;;;;;5056812;28;20183;-80
2022/02/08 02:56:48;;;;;;;4.10;1.50;;;6.70;99.90;;;;;;5056565;28;20182;-80
2022/02/08 02:59:16;;;;;;;3.83;2.10;;;6.70;99.90;;;;;;5055966;28;20199;-80
2022/02/08 03:20:23;;;;;;;6.57;1.70;;;6.90;99.90;;;;;;5055430;28;20205;-81
2022/02/08 03:22:49;;;;;;;4.20;2.03;;;6.90;99.90;;;;;;5055890;28;20183;-80
2022/02/08 03:25:15;;;;;;;4.63;1.63;;;7.00;99.90;;;;;;5055915;28;20180;-80
2022/02/08 03:27:40;;;;;;;4.83;2.10;;;7.00;99.90;;;;;;5055745;28;20258;-80
2022/02/08 03:30:07;;;;;;;2.37;1.43;;;7.10;99.90;;;;;;5055262;28;20187;-80
2022/02/08 03:32:32;;;;;;;6.43;1.40;;;7.20;99.90;;;;;;5055660;28;20645;-81
2022/02/08 03:34:58;;;;;;;2.90;1.30;;;7.10;99.90;;;;;;5055797;28;20182;-81
2022/02/08 03:37:26;;;;;;;3.40;2.57;;;7.20;99.90;;;;;;5055743;28;20182;-80
2022/02/08 03:40:00;;;;;;;2.95;1.42;;;7.20;99.90;;;;;;5055269;28;20591;-81
2022/02/08 03:42:35;;;;;;;2.38;2.17;;;7.20;99.90;;;;;;5055744;28;20174;-81
2022/02/08 03:45:03;;;;;;;3.33;1.70;;;7.20;99.90;;;;;;5054451;28;20194;-80
2022/02/08 03:47:28;;;;;;;8.32;1.98;;;7.30;99.90;;;;;;5054399;28;20194;-81
2022/02/08 03:49:54;;;;;;;8.83;2.07;;;7.30;99.90;;;;;;5054017;28;20739;-81
2022/02/08 03:52:23;;;;;;;3.63;1.50;;;7.30;99.90;;;;;;5055440;28;20175;-81
2022/02/08 03:54:49;;;;;;;2.47;1.38;;;7.30;99.90;;;;;;5054348;28;20170;-81
2022/02/08 03:57:15;;;;;;;2.10;1.65;;;7.20;99.90;;;;;;5055006;28;20206;-80
2022/02/08 03:59:40;;;;;;;5.87;1.70;;;7.20;99.90;;;;;;5053752;28;20194;-80
2022/02/08 04:07:24;;;;;;;4.38;2.15;;;7.20;99.90;;;;;;5055046;28;20646;-80
2022/02/08 04:09:52;;;;;;;3.55;1.90;;;7.20;99.90;;;;;;5054599;28;20275;-80
2022/02/08 04:12:33;;;;;;;3.13;1.80;;;7.30;99.90;;;;;;5055037;28;20166;-80
2022/02/08 04:15:19;;;;;;;2.90;1.65;;;7.30;99.90;;;;;;5053637;28;20179;-81
2022/02/08 04:34:20;;;;;;;3.30;1.45;;;7.40;99.90;;;;;;5054540;28;20189;-79
2022/02/08 04:37:09;;;;;;;4.70;1.40;;;7.30;99.90;;;;;;5054396;28;20526;-80
2022/02/08 04:39:54;;;;;;;2.50;1.80;;;7.20;99.90;;;;;;5053275;28;20197;-80
2022/02/08 04:42:31;;;;;;;3.03;1.85;;;7.20;99.90;;;;;;5054559;28;20178;-80
2022/02/08 04:47:32;;;;;;;2.47;1.52;;;7.10;99.90;;;;;;5054296;28;20224;-80
2022/02/08 04:49:58;;;;;;;2.33;2.13;;;7.00;99.90;;;;;;5054097;28;20197;-80
2022/02/08 04:52:26;;;;;;;2.30;2.10;;;7.00;99.90;;;;;;5052972;28;20174;-80
2022/02/08 04:57:31;;;;;;;5.82;2.47;;;7.10;99.90;;;;;;5054366;28;20197;-81
2022/02/08 05:46:00;;;;;;;3.15;2.22;;;7.30;99.90;;;;;;5053844;28;20212;-82
2022/02/08 05:48:02;;;;;;;5.00;2.72;;;7.30;99.90;;;;;;5049328;28;20212;-86
2022/02/08 05:53:07;;;;;;;3.75;2.70;;;7.20;99.90;;;;;;5052325;28;20227;-81
2022/02/08 05:55:34;;;;;;;5.28;2.45;;;7.30;99.90;;;;;;5053380;28;20267;-82
2022/02/08 05:58:00;;;;;;;4.25;2.80;;;7.30;99.90;;;;;;5053384;28;20170;-83
2022/02/08 06:00:28;;;;;;;3.88;2.55;;;7.20;99.90;;;;;;5051684;28;20204;-83
2022/02/08 06:02:55;;;;;;;2.80;2.60;;;7.20;99.90;;;;;;5051828;28;20266;-84
2022/02/08 06:05:24;;;;;;;3.75;2.72;;;7.20;99.90;;;;;;5053094;28;20548;-83
2022/02/08 06:07:50;;;;;;;6.32;2.88;;;7.30;99.90;;;;;;5051945;28;20213;-81
2022/02/08 06:10:16;;;;;;;4.57;2.87;;;7.30;99.90;;;;;;5052509;28;20682;-84
2022/02/08 06:12:51;;;;;;;4.95;3.20;;;7.30;99.90;;;;;;5053056;28;20184;-83
2022/02/08 06:15:20;;;;;;;4.80;2.65;;;7.30;99.90;;;;;;5051723;28;20173;-82
2022/02/08 06:17:46;;;;;;;3.85;2.60;;;7.30;99.90;;;;;;5052775;28;20260;-85
2022/02/08 06:20:13;;;;;;;4.57;3.05;;;7.30;99.90;;;;;;5055230;28;20201;-83
2022/02/08 06:22:41;;;;;;;5.10;3.53;;;7.30;99.90;;;;;;5057215;28;20250;-83
2022/02/08 06:25:10;;;;;;;5.40;3.45;;;7.30;99.90;;;;;;5056070;28;20187;-82
2022/02/08 06:27:35;;;;;;;5.82;2.50;;;7.30;99.90;;;;;;5056972;28;20190;-84
2022/02/08 06:30:01;;;;;;;3.77;2.83;;;7.40;99.90;;;;;;5055404;28;20189;-85
2022/02/08 06:32:28;;;;;;;6.30;2.53;;;7.40;99.90;;;;;;5057171;28;20645;-84
2022/02/08 06:34:56;;;;;;;3.45;2.13;;;7.40;99.90;;;;;;5055683;28;20461;-83
2022/02/08 06:37:24;;;;;;;7.22;2.13;;;7.50;99.90;;;;;;5056874;28;20184;-83
2022/02/08 06:39:50;;;;;;;5.97;2.30;;;7.50;99.90;;;;;;5038791;28;20669;-83
2022/02/08 06:42:16;;;;;;;4.43;2.40;;;7.50;99.90;;;;;;5056672;28;20259;-83
2022/02/08 06:44:41;;;;;;;2.63;2.37;;;7.50;99.90;;;;;;5056836;28;20253;-84
2022/02/08 06:47:07;;;;;;;3.80;2.30;;;7.50;99.90;;;;;;5056619;28;20255;-81
2022/02/08 06:49:33;;;;;;;5.10;2.03;;;7.50;99.90;;;;;;5055065;28;20665;-83
2022/02/08 06:51:59;;;;;;;4.40;2.30;;;7.60;99.90;;;;;;5056519;28;20260;-82
2022/02/08 06:54:25;;;;;;;2.33;2.13;;;7.50;99.90;;;;;;5056508;28;20817;-82
2022/02/08 06:56:50;;;;;;;4.10;1.97;;;7.50;99.90;;;;;;5056594;28;20174;-84
2022/02/08 06:59:18;;;;;;;5.77;2.63;;;7.60;99.90;;;;;;5055175;28;20202;-82
2022/02/08 07:01:45;;;;;;;3.03;2.35;;;7.60;99.90;;;;;;5055160;28;20336;-83
2022/02/08 07:04:14;;;;;;;3.80;2.40;;;7.50;99.90;;;;;;5056292;28;20204;-84
2022/02/08 07:06:45;;;;;;;4.72;2.30;;;7.60;99.90;;;;;;5055039;28;20252;-85
2022/02/08 07:09:12;;;;;;;2.45;2.25;;;7.60;99.90;;;;;;5054647;28;20239;-84
2022/02/08 07:11:38;;;;;;;3.45;2.38;;;7.70;99.90;;;;;;5056416;28;20216;-82
2022/02/08 07:14:05;;;;;;;3.97;2.65;;;7.60;99.90;;;;;;5056045;28;20180;-82
2022/02/08 07:16:31;;;;;;;3.22;2.92;;;7.60;99.90;;;;;;5056139;28;20178;-84
2022/02/08 07:18:57;;;;;;;2.50;2.28;;;7.60;99.90;;;;;;5055797;28;20169;-81
2022/02/08 07:21:23;;;;;;;3.13;2.80;;;7.60;99.90;;;;;;5054840;28;20179;-83
2022/02/08 07:23:49;;;;;;;4.43;2.43;;;7.60;99.90;;;;;;5054735;28;20450;-79
2022/02/08 07:26:15;;;;;;;4.27;2.43;;;7.60;99.90;;;;;;5054249;28;20210;-80
2022/02/08 07:28:42;;;;;;;5.70;2.63;;;7.60;99.90;;;;;;5048774;28;20285;-81
2022/02/08 07:31:22;;;;;;;3.05;2.30;;;7.60;99.90;;;;;;5054161;28;20424;-80
2022/02/08 07:34:12;;;;;;;3.42;2.60;;;7.60;99.90;;;;;;5052000;28;20189;-83
2022/02/08 07:36:43;;;;;;;5.13;3.15;;;7.60;99.90;;;;;;5053074;28;20186;-79
2022/02/08 07:39:11;;;;;;;2.85;2.60;;;7.70;99.90;;;;;;5053586;28;20221;-81
2022/02/08 07:41:41;;;;;;;3.72;2.95;;;7.70;99.90;;;;;;5055615;28;20176;-80
2022/02/08 07:44:11;;;;;;;4.07;2.88;;;7.70;99.90;;;;;;5054302;28;20174;-80
2022/02/08 07:46:37;;;;;;;4.15;2.85;;;7.80;99.90;;;;;;5054362;28;20187;-83
2022/02/08 07:49:05;;;;;;;4.07;3.63;;;7.80;99.90;;;;;;5055439;28;20232;-81
2022/02/08 07:51:37;;;;;;;5.15;3.60;;;7.80;99.90;;;;;;5055349;28;20183;-83
2022/02/08 07:54:04;;;;;;;3.78;3.30;;;7.80;99.90;;;;;;5055637;28;20647;-85
2022/02/08 07:56:30;;;;;;;6.57;2.90;;;7.80;99.90;;;;;;5055436;28;20178;-82
2022/02/08 07:58:56;;;;;;;3.40;2.80;;;7.90;99.90;;;;;;5055295;28;20236;-82
2022/02/08 08:01:22;;;;;;;7.70;3.17;;;7.90;99.90;;;;;;5055393;28;20174;-82
2022/02/08 08:03:48;;;;;;;3.30;3.00;;;7.90;99.90;;;;;;5055326;28;20934;-84
2022/02/08 08:06:16;;;;;;;4.72;3.30;;;8.00;99.90;;;;;;5053836;28;20179;-82
2022/02/08 08:08:42;;;;;;;5.90;3.40;;;8.10;99.90;;;;;;5054542;28;20575;-81
2022/02/08 08:11:13;;;;;;;5.07;3.75;;;8.10;99.90;;;;;;5054980;28;20199;-82
2022/02/08 08:13:48;;;;;;;5.93;3.10;;;8.20;99.90;;;;;;5055106;28;20205;-84
2022/02/08 08:19:05;;;;;;;7.57;3.10;;;8.20;99.90;;;;;;5054824;28;20337;-81
2022/02/08 08:21:33;;;;;;;4.25;3.20;;;8.20;99.90;;;;;;5053614;28;20638;-82
2022/02/08 08:23:59;;;;;;;3.65;3.08;;;8.20;99.90;;;;;;5054836;28;20174;-82
2022/02/08 08:26:25;;;;;;;5.85;3.20;;;8.30;99.90;;;;;;5054761;28;20174;-81
2022/02/08 08:28:50;;;;;;;4.23;2.83;;;8.30;99.90;;;;;;5054430;28;20181;-81
2022/02/08 08:31:16;;;;;;;4.07;2.70;;;8.30;99.90;;;;;;5054841;28;20182;-85
2022/02/08 08:33:43;;;;;;;6.80;3.83;;;8.30;99.90;;;;;;5053648;28;20655;-82
2022/02/08 08:36:10;;;;;;;5.03;2.58;;;8.40;99.90;;;;;;5053510;28;20180;-82
2022/02/08 08:38:35;;;;;;;6.57;3.10;;;8.30;99.90;;;;;;5053279;28;20175;-82
2022/02/08 08:43:45;;;;;;;6.97;3.28;;;8.40;99.90;;;;;;5054789;28;20423;-83
2022/02/08 08:51:56;;;;;;;2.75;2.40;;;8.50;99.90;;;;;;5020569;28;20182;-81
2022/02/08 08:54:23;;;;;;;6.18;3.42;;;8.60;99.90;;;;;;5054217;28;20181;-81
2022/02/08 08:56:50;;;;;;;3.58;2.70;;;8.60;99.90;;;;;;5054209;28;20190;-82
2022/02/08 08:59:18;;;;;;;2.92;2.55;;;8.60;99.90;;;;;;5053813;28;20243;-82
2022/02/08 09:01:44;;;;;;;6.55;2.78;;;8.60;99.90;;;;;;5054539;28;20202;-82
2022/02/08 09:04:11;;;;;;;4.90;2.50;;;8.60;99.90;;;;;;5052763;28;20608;-81
2022/02/08 09:06:37;;;;;;;3.25;2.90;;;8.70;99.90;;;;;;5054081;28;20295;-81
2022/02/08 09:09:08;;;;;;;3.17;2.65;;;8.70;99.90;;;;;;5052245;28;20295;-83
2022/02/08 09:11:53;;;;;;;3.33;2.25;;;8.80;99.90;;;;;;5054087;28;20230;-82
2022/02/08 09:14:24;;;;;;;4.72;2.72;;;8.80;99.90;;;;;;5053915;28;20182;-82
2022/02/08 09:17:31;;;;;;;4.68;2.70;;;8.80;99.90;;;;;;5053699;28;20170;-81
2022/02/08 09:21:13;;;;;;;3.65;2.80;;;8.80;99.90;;;;;;5053213;28;20221;-82
2022/02/08 09:30:17;;;;;;;3.58;3.25;;;9.00;99.90;;;;;;5052579;28;20197;-81
2022/02/08 09:32:53;;;;;;;5.93;2.38;;;9.00;99.90;;;;;;5052595;28;20173;-82
2022/02/08 09:35:23;;;;;;;12.73;2.42;;;9.00;99.90;;;;;;5053417;28;20174;-80
2022/02/08 09:37:48;;;;;;;4.47;2.50;;;9.00;99.90;;;;;;5052276;28;20665;-81
2022/02/08 09:40:21;;;;;;;3.70;2.40;;;9.10;99.90;;;;;;5053249;28;20320;-82
2022/02/08 09:42:52;;;;;;;3.25;2.03;;;9.10;99.90;;;;;;5053662;28;20216;-81
2022/02/08 09:45:20;;;;;;;5.65;2.20;;;9.10;99.90;;;;;;5053406;28;20178;-82
2022/02/08 09:48:13;;;;;;;6.20;2.50;;;9.20;99.90;;;;;;5052087;28;20210;-82
2022/02/08 09:50:40;;;;;;;2.75;2.10;;;9.20;99.90;;;;;;5053170;28;20182;-81
2022/02/08 09:53:12;;;;;;;4.40;2.50;;;9.20;99.90;;;;;;5053284;28;20219;-81
2022/02/08 09:55:39;;;;;;;2.78;2.28;;;9.20;99.90;;;;;;5053402;28;20657;-81
2022/02/08 09:58:07;;;;;;;6.78;3.15;;;9.30;99.90;;;;;;5053488;28;20546;-82
2022/02/08 10:00:34;;;;;;;3.55;2.70;;;9.30;99.90;;;;;;5052848;28;20190;-81
2022/02/08 10:03:16;;;;;;;4.07;2.45;;;9.30;99.90;;;;;;5052126;28;20182;-81
2022/02/08 10:05:53;;;;;;;2.63;1.77;;;9.30;99.90;;;;;;5052044;28;20228;-81
2022/02/08 10:08:20;;;;;;;2.30;1.83;;;9.40;99.90;;;;;;5053129;28;20256;-81
2022/02/08 10:10:46;;;;;;;4.85;2.08;;;9.40;99.90;;;;;;5052600;28;20313;-82
2022/02/08 10:13:41;;;;;;;5.35;2.35;;;9.40;99.90;;;;;;5053041;28;20181;-81
2022/02/08 10:21:43;;;;;;;1.65;1.52;;;9.50;99.90;;;;;;5052099;28;20281;-81
2022/02/08 10:24:10;;;;;;;8.02;1.67;;;9.50;99.90;;;;;;5053092;28;20212;-80
2022/02/08 10:40:04;;;;;;;4.53;1.75;;;9.60;99.90;;;;;;5052186;28;20313;-79
2022/02/08 10:42:30;;;;;;;1.88;1.40;;;9.60;99.90;;;;;;5052939;28;20178;-79
2022/02/08 10:44:57;;;;;;;3.95;2.60;;;9.70;99.90;;;;;;5034867;28;20191;-80
2022/02/08 10:47:40;;;;;;;2.60;1.35;;;9.70;99.90;;;;;;5052494;28;20227;-81
2022/02/08 10:50:08;;;;;;;2.70;2.05;;;9.70;99.90;;;;;;5052368;28;20795;-79
2022/02/08 10:52:36;;;;;;;3.40;1.88;;;9.70;99.90;;;;;;5052790;28;20658;-80
2022/02/08 10:55:13;;;;;;;2.45;1.42;;;9.70;99.90;;;;;;5052770;28;20215;-80
2022/02/08 10:57:52;;;;;;;4.80;1.85;;;9.80;99.90;;;;;;5052767;28;20185;-79
2022/02/08 11:00:32;;;;;;;3.58;1.58;;;9.80;99.90;;;;;;5052348;28;20198;-81
2022/02/08 11:03:01;;;;;;;4.10;1.35;;;9.80;99.90;;;;;;5052668;28;20690;-80
2022/02/08 11:05:42;;;;;;;3.88;1.60;;;9.90;99.90;;;;;;5054829;28;20184;-80
2022/02/08 11:16:05;;;;;;;6.45;2.10;;;10.00;99.90;;;;;;5056209;28;20224;-80
2022/02/08 11:18:59;;;;;;;2.80;1.35;;;10.10;99.90;;;;;;5056102;28;20179;-80
2022/02/08 11:21:43;;;;;;;1.70;1.15;;;10.20;99.90;;;;;;5056088;28;20178;-80
2022/02/08 11:24:26;;;;;;;6.35;2.33;;;10.10;99.90;;;;;;5054429;28;20217;-80
2022/02/08 11:26:59;;;;;;;4.97;1.50;;;10.30;99.90;;;;;;5055965;28;20237;-80
2022/02/08 11:30:03;;;;;;;3.42;1.60;;;10.20;99.90;;;;;;5055755;28;20190;-78
2022/02/08 11:46:25;;;;;;;3.45;1.65;;;10.20;99.90;;;;;;5056010;28;20191;-80
2022/02/08 11:51:52;;;;;;;3.25;1.77;;;10.30;99.90;;;;;;5055547;28;20589;-80
2022/02/08 11:54:29;;;;;;;3.72;1.45;;;10.30;99.90;;;;;;5055409;28;20257;-80
2022/02/08 12:09:59;;;;;;;2.20;1.30;;;10.60;99.90;;;;;;5053523;28;20201;-80
2022/02/08 12:59:25;;;;;;;10.57;1.38;;;11.30;99.90;;;;;;5034150;28;20232;-80
2022/02/08 13:02:16;;;;;;;4.45;1.10;;;11.20;99.90;;;;;;5038577;28;20185;-79
2022/02/08 14:02:02;;;;;;;7.90;0.98;;;11.20;99.90;;;;;;5032953;28;20258;-80
2022/02/08 14:07:11;;;;;;;3.67;1.27;;;11.50;99.90;;;;;;5033445;28;20197;-82
2022/02/08 14:09:58;;;;;;;4.03;1.23;;;11.60;99.90;;;;;;5032790;28;20218;-81
2022/02/08 14:20:43;;;;;;;4.22;1.63;;;11.40;99.90;;;;;;5032897;28;20198;-79
2022/02/08 14:25:49;;;;;;;3.70;1.27;;;11.10;99.90;;;;;;5033250;28;20628;-81
2022/02/08 14:31:29;;;;;;;4.32;2.30;;;11.20;99.90;;;;;;5033097;28;20290;-81
2022/02/08 15:09:03;;;;;;;1.88;1.25;;;10.60;99.90;;;;;;5036304;28;20285;-81
2022/02/08 15:11:44;;;;;;;1.40;1.10;;;10.60;99.90;;;;;;5034927;28;20281;-80
2022/02/08 15:14:09;;;;;;;1.40;1.20;;;10.60;99.90;;;;;;5036246;28;20243;-82
2022/02/08 15:16:36;;;;;;;1.30;1.20;;;10.50;99.90;;;;;;5036331;28;20670;-81
2022/02/08 15:19:03;;;;;;;1.70;1.00;;;10.40;99.90;;;;;;5035953;28;20651;-80
2022/02/08 15:21:32;;;;;;;1.40;1.00;;;10.30;99.90;;;;;;5035981;28;20182;-80
2022/02/08 15:24:00;;;;;;;2.42;1.27;;;10.30;99.90;;;;;;5035981;28;20179;-81
2022/02/08 15:26:26;;;;;;;1.30;0.85;;;10.20;99.90;;;;;;5036028;28;20265;-81
2022/02/08 15:28:52;;;;;;;1.30;1.00;;;10.30;99.90;;;;;;5035582;28;20555;-81
2022/02/08 15:31:18;;;;;;;1.37;1.10;;;10.40;99.90;;;;;;5035955;28;20337;-82
2022/02/08 15:33:44;;;;;;;3.60;1.10;;;10.40;99.90;;;;;;5035844;28;20171;-80
2022/02/08 15:36:10;;;;;;;2.83;1.42;;;10.40;99.90;;;;;;5034838;28;20193;-81
2022/02/08 15:38:39;;;;;;;2.60;1.33;;;10.30;99.90;;;;;;5035419;28;20193;-82
2022/02/08 15:41:06;;;;;;;2.85;1.33;;;10.20;99.90;;;;;;5034798;28;20190;-81
2022/02/08 15:43:32;;;;;;;1.33;1.23;;;10.20;99.90;;;;;;5036067;28;20605;-81
2022/02/08 15:46:40;;;;;;;2.17;1.30;;;10.30;99.90;;;;;;5034702;28;20179;-81
2022/02/08 15:48:49;;;;;;;1.75;1.65;;;10.20;99.90;;;;;;5029622;28;20232;-81
2022/02/08 15:51:25;;;;;;;1.88;1.40;;;10.30;99.90;;;;;;5035580;28;20175;-81
2022/02/08 15:54:01;;;;;;;1.55;1.40;;;10.40;99.90;;;;;;5035788;28;20181;-81
2022/02/08 15:56:36;;;;;;;2.63;1.50;;;10.40;99.90;;;;;;5035650;28;20309;-81
2022/02/08 16:07:04;;;;;;;3.05;2.00;;;10.40;99.90;;;;;;5035860;28;20567;-81
2022/02/08 16:20:33;;;;;;;2.45;1.20;;;10.20;99.90;;;;;;5052046;28;20301;-82
2022/02/08 16:26:00;;;;;;;3.53;1.50;;;10.30;99.90;;;;;;5052720;28;20251;-81
2022/02/08 16:45:56;;;;;;;5.13;1.65;;;10.20;99.90;;;;;;5051667;28;20200;-81
2022/02/08 16:52:53;;;;;;;2.70;1.10;;;10.10;99.90;;;;;;5053359;28;20186;-85
2022/02/08 16:55:32;;;;;;;1.40;1.20;;;10.10;99.90;;;;;;5050853;28;20196;-84
2022/02/08 17:00:29;;;;;;;2.75;1.77;;;10.10;99.90;;;;;;5052339;28;20205;-82
2022/02/08 17:03:00;;;;;;;4.15;1.20;;;10.10;99.90;;;;;;5051496;28;20189;-82
2022/02/08 17:05:25;;;;;;;1.10;1.00;;;10.00;99.90;;;;;;5052700;28;20213;-82
2022/02/08 17:07:51;;;;;;;1.40;1.30;;;10.00;99.90;;;;;;5052464;28;20206;-83
2022/02/08 17:10:39;;;;;;;2.92;1.48;;;10.00;99.90;;;;;;5051196;28;20582;-79
2022/02/08 17:18:43;;;;;;;2.63;1.30;;;9.90;99.90;;;;;;5051501;28;20198;-81
2022/02/08 17:35:23;;;;;;;2.58;1.40;;;9.90;99.90;;;;;;5051934;28;20217;-81
2022/02/08 17:48:18;;;;;;;4.22;2.00;;;10.00;99.90;;;;;;5051074;28;20216;-83
2022/02/08 17:50:45;;;;;;;1.73;1.30;;;10.00;99.90;;;;;;5050007;28;20573;-82
2022/02/08 17:53:10;;;;;;;2.88;1.80;;;10.00;99.90;;;;;;5051192;28;20654;-82
2022/02/08 17:55:36;;;;;;;2.17;1.70;;;10.00;99.90;;;;;;5050415;28;20186;-83
2022/02/08 17:58:02;;;;;;;4.60;2.20;;;10.10;99.90;;;;;;5051161;28;20251;-83
2022/02/08 18:00:32;;;;;;;2.70;1.50;;;10.00;99.90;;;;;;5049772;28;20743;-81
2022/02/08 18:02:59;;;;;;;5.75;2.78;;;10.00;99.90;;;;;;5051501;28;20650;-82
2022/02/08 18:05:25;;;;;;;3.30;1.90;;;10.10;99.90;;;;;;5051827;28;20221;-81
2022/02/08 18:07:51;;;;;;;3.40;1.75;;;10.10;99.90;;;;;;5051038;28;20202;-83
2022/02/08 18:10:22;;;;;;;4.15;1.98;;;10.10;99.90;;;;;;5052228;28;20201;-80
2022/02/08 18:12:48;;;;;;;2.35;2.08;;;10.10;99.90;;;;;;5052976;28;20151;-84
2022/02/08 18:15:14;;;;;;;2.60;1.67;;;10.10;99.90;;;;;;5052126;28;20241;-81
2022/02/08 18:17:46;;;;;;;2.15;1.70;;;10.00;99.90;;;;;;5053195;28;20483;-83
2022/02/08 19:14:16;;;;;;;2.10;1.58;;;9.90;99.90;;;;;;5052632;28;20185;-80
2022/02/08 19:21:45;;;;;;;10.20;2.97;;;9.90;99.90;;;;;;5052460;28;20183;-81
2022/02/08 19:24:19;;;;;;;2.95;1.52;;;9.90;99.90;;;;;;5052314;28;20635;-80
2022/02/08 19:26:50;;;;;;;7.18;2.42;;;9.80;99.90;;;;;;5055050;28;20218;-80
2022/02/08 19:29:17;;;;;;;2.17;1.73;;;9.90;99.90;;;;;;5055849;28;20597;-81
2022/02/08 19:31:44;;;;;;;3.83;1.40;;;9.90;99.90;;;;;;5055876;28;20202;-81
2022/02/08 19:34:10;;;;;;;2.17;1.30;;;9.90;99.90;;;;;;5055851;28;20192;-81
2022/02/08 19:36:35;;;;;;;3.30;1.80;;;9.90;99.90;;;;;;5055909;28;20183;-82
2022/02/08 19:39:03;;;;;;;2.40;1.47;;;9.90;99.90;;;;;;5055497;28;20201;-82
2022/02/08 19:41:29;;;;;;;3.08;1.20;;;9.90;99.90;;;;;;5055790;28;20228;-82
2022/02/08 19:43:55;;;;;;;5.50;1.80;;;9.90;99.90;;;;;;5055530;28;20182;-82
2022/02/08 19:46:21;;;;;;;5.00;1.60;;;9.90;99.90;;;;;;5054357;28;20186;-81
2022/02/08 19:48:47;;;;;;;1.88;1.48;;;9.80;99.90;;;;;;5054956;28;20213;-82
2022/02/08 19:51:13;;;;;;;2.60;1.67;;;9.90;99.90;;;;;;5055491;28;20175;-81
2022/02/08 19:53:39;;;;;;;2.47;1.33;;;9.80;99.90;;;;;;5055725;28;20672;-81
2022/02/08 19:56:43;;;;;;;3.90;2.17;;;9.90;99.90;;;;;;5054409;28;20186;-81
2022/02/08 19:58:59;;;;;;;3.63;1.88;;;9.90;99.90;;;;;;5051908;28;20206;-80
2022/02/08 20:01:27;;;;;;;3.28;1.70;;;9.90;99.90;;;;;;5054195;28;20173;-82
2022/02/08 20:03:58;;;;;;;2.17;1.50;;;9.90;99.90;;;;;;5055205;28;20232;-81
2022/02/08 20:06:25;;;;;;;2.92;1.80;;;9.80;99.90;;;;;;5054092;28;20181;-81
2022/02/08 20:08:51;;;;;;;3.67;1.50;;;9.80;99.90;;;;;;5053549;28;20293;-82
2022/02/08 20:11:17;;;;;;;1.97;1.77;;;9.80;99.90;;;;;;5053907;28;20731;-81
2022/02/08 20:13:51;;;;;;;2.47;1.63;;;9.80;99.90;;;;;;5053729;28;20206;-81
2022/02/08 20:16:18;;;;;;;4.72;1.73;;;9.80;99.90;;;;;;5034688;28;20182;-81
2022/02/08 20:18:46;;;;;;;3.42;1.95;;;9.80;99.90;;;;;;5034675;28;20187;-81
2022/02/08 20:21:12;;;;;;;2.00;1.80;;;9.80;99.90;;;;;;5035140;28;20178;-80
2022/02/08 20:23:38;;;;;;;3.17;1.80;;;9.80;99.90;;;;;;5033349;28;20183;-81
2022/02/08 20:26:05;;;;;;;3.87;2.07;;;9.80;99.90;;;;;;5034460;28;20725;-81
2022/02/08 20:28:37;;;;;;;2.55;2.15;;;9.80;99.90;;;;;;5034708;28;20465;-82
2022/02/08 20:31:04;;;;;;;3.90;1.90;;;9.90;99.90;;;;;;5034844;28;20187;-82
2022/02/08 20:33:29;;;;;;;2.40;2.20;;;9.80;99.90;;;;;;5034825;28;20190;-81
2022/02/08 20:35:55;;;;;;;4.40;1.87;;;9.90;99.90;;;;;;5034753;28;20643;-83
2022/02/08 20:38:21;;;;;;;2.70;1.70;;;10.00;99.90;;;;;;5032569;28;20186;-82
2022/02/08 20:40:49;;;;;;;3.50;1.60;;;9.90;99.90;;;;;;5034415;28;20829;-81
2022/02/08 20:43:17;;;;;;;6.45;2.88;;;9.80;99.90;;;;;;5033377;28;20468;-80
2022/02/08 20:45:43;;;;;;;4.60;1.85;;;9.80;99.90;;;;;;5040235;28;20186;-81
2022/02/08 20:48:09;;;;;;;3.17;2.10;;;9.80;99.90;;;;;;5034343;28;20206;-81
2022/02/08 20:50:38;;;;;;;6.93;3.38;;;9.80;99.90;;;;;;5032894;28;20202;-82
2022/02/08 20:53:23;;;;;;;4.75;1.90;;;9.70;99.90;;;;;;5033534;28;20179;-80
2022/02/08 20:55:58;;;;;;;3.15;1.60;;;9.80;99.90;;;;;;5034453;28;20222;-82
2022/02/08 20:58:39;;;;;;;6.32;2.30;;;9.90;99.90;;;;;;5034227;28;20162;-81
2022/02/08 21:01:04;;;;;;;5.53;1.88;;;9.90;99.90;;;;;;5019039;28;20166;-80